createdAt,value
2023-09-02T00:00:14.221Z,95092
2023-09-02T00:03:39.476Z,95098
2023-09-02T00:07:04.546Z,95102
2023-09-02T00:10:29.721Z,95098
2023-09-02T00:13:54.901Z,95103
2023-09-02T00:17:20.122Z,95102
2023-09-02T00:20:45.262Z,95098
2023-09-02T00:24:10.407Z,95104
2023-09-02T00:27:35.571Z,95100
2023-09-02T00:31:00.760Z,95100
2023-09-02T00:34:25.948Z,95103
2023-09-02T00:37:51.129Z,95108
2023-09-02T00:41:16.270Z,95113
2023-09-02T00:44:41.448Z,95107
2023-09-02T00:48:06.656Z,95109
2023-09-02T00:51:31.811Z,95102
2023-09-02T00:54:56.998Z,95101
2023-09-02T00:58:22.148Z,95099
2023-09-02T01:01:47.308Z,95103
2023-09-02T01:05:12.475Z,95110
2023-09-02T01:08:37.617Z,95117
2023-09-02T01:12:02.797Z,95114
2023-09-02T01:15:27.950Z,95112
2023-09-02T01:18:53.128Z,95113
2023-09-02T01:22:18.293Z,95114
2023-09-02T01:25:43.470Z,95118
2023-09-02T01:29:08.672Z,95120
2023-09-02T01:32:33.850Z,95118
2023-09-02T01:35:59.003Z,95140
2023-09-02T01:39:24.157Z,95140
2023-09-02T01:42:49.339Z,95137
2023-09-02T01:46:14.572Z,95130
2023-09-02T01:49:39.616Z,95133
2023-09-02T01:53:04.788Z,95136
2023-09-02T01:56:29.955Z,95140
2023-09-02T01:59:55.118Z,95136
2023-09-02T02:03:20.599Z,95134
2023-09-02T02:06:45.432Z,95126
2023-09-02T02:10:10.595Z,95124
2023-09-02T02:13:35.793Z,95134
2023-09-02T02:17:00.936Z,95135
2023-09-02T02:20:26.149Z,95134
2023-09-02T02:23:51.298Z,95145
2023-09-02T02:27:16.457Z,95147
2023-09-02T02:30:41.636Z,95150
2023-09-02T02:34:06.804Z,95153
2023-09-02T02:37:32.000Z,95146
2023-09-02T02:40:57.130Z,95154
2023-09-02T02:44:22.331Z,95152
2023-09-02T02:47:47.558Z,95151
2023-09-02T02:51:12.720Z,95154
2023-09-02T02:54:37.879Z,95156
2023-09-02T02:58:03.019Z,95156
2023-09-02T03:01:28.213Z,95162
2023-09-02T03:04:53.356Z,95165
2023-09-02T03:08:18.520Z,95166
2023-09-02T03:11:43.707Z,95166
2023-09-02T03:15:08.843Z,95174
2023-09-02T03:18:34.052Z,95173
2023-09-02T03:21:59.174Z,95182
2023-09-02T03:25:24.362Z,95183
2023-09-02T03:28:49.565Z,95177
2023-09-02T03:32:14.705Z,95181
2023-09-02T03:35:39.918Z,95187
2023-09-02T03:39:05.037Z,95191
2023-09-02T03:42:30.198Z,95186
2023-09-02T03:45:55.386Z,95189
2023-09-02T03:49:20.525Z,95187
2023-09-02T03:52:45.683Z,95198
2023-09-02T03:56:10.851Z,95200
2023-09-02T03:59:35.996Z,95192
2023-09-02T04:03:01.272Z,95201
2023-09-02T04:06:26.353Z,95203
2023-09-02T04:09:51.515Z,95202
2023-09-02T04:13:16.910Z,95217
2023-09-02T04:16:41.921Z,95217
2023-09-02T04:20:07.067Z,95217
2023-09-02T04:23:32.259Z,95218
2023-09-02T04:26:57.391Z,95218
2023-09-02T04:30:22.553Z,95219
2023-09-02T04:33:47.722Z,95220
2023-09-02T04:37:12.961Z,95226
2023-09-02T04:40:38.090Z,95238
2023-09-02T04:44:03.292Z,95238
2023-09-02T04:47:28.510Z,95242
2023-09-02T04:50:53.632Z,95241
2023-09-02T04:54:18.837Z,95245
2023-09-02T04:57:43.979Z,95253
2023-09-02T05:01:09.141Z,95258
2023-09-02T05:04:34.276Z,95256
2023-09-02T05:07:59.437Z,95262
2023-09-02T05:11:24.663Z,95269
2023-09-02T05:14:49.764Z,95265
2023-09-02T05:18:14.920Z,95269
2023-09-02T05:21:40.101Z,95274
2023-09-02T05:25:05.265Z,95271
2023-09-02T05:28:30.452Z,95270
2023-09-02T05:31:55.627Z,95272
2023-09-02T05:35:20.768Z,95274
2023-09-02T05:38:45.910Z,95279
2023-09-02T05:42:11.076Z,95279
2023-09-02T05:45:37.153Z,95278
2023-09-02T05:49:02.301Z,95283
2023-09-02T05:52:27.474Z,95285
2023-09-02T05:55:52.626Z,95286
2023-09-02T05:59:17.819Z,95289
2023-09-02T06:02:43.070Z,95289
2023-09-02T06:06:08.323Z,95294
2023-09-02T06:09:33.499Z,95294
2023-09-02T06:12:58.687Z,95291
2023-09-02T06:16:23.832Z,95293
2023-09-02T06:19:49.013Z,95296
2023-09-02T06:23:14.160Z,95301
2023-09-02T06:26:39.340Z,95296
2023-09-02T06:30:04.501Z,95293
2023-09-02T06:33:29.677Z,95299
2023-09-02T06:36:54.880Z,95308
2023-09-02T06:40:20.038Z,95309
2023-09-02T06:44:07.027Z,95305
2023-09-02T06:47:32.215Z,95309
2023-09-02T06:50:57.344Z,95314
2023-09-02T06:54:22.557Z,95320
2023-09-02T06:57:47.690Z,95316
2023-09-02T07:01:12.969Z,95328
2023-09-02T07:04:38.073Z,95328
2023-09-02T07:08:03.264Z,95335
2023-09-02T07:11:28.463Z,95341
2023-09-02T07:14:53.607Z,95337
2023-09-02T07:18:18.785Z,95338
2023-09-02T07:21:44.019Z,95336
2023-09-02T07:25:09.238Z,95339
2023-09-02T07:28:34.417Z,95341
2023-09-02T07:31:59.560Z,95339
2023-09-02T07:35:24.715Z,95340
2023-09-02T07:38:49.909Z,95346
2023-09-02T07:42:15.100Z,95353
2023-09-02T07:45:40.461Z,95365
2023-09-02T07:49:05.592Z,95366
2023-09-02T07:52:30.770Z,95371
2023-09-02T07:55:55.929Z,95381
2023-09-02T07:59:21.159Z,95378
2023-09-02T08:02:46.337Z,95376
2023-09-02T08:06:11.475Z,95386
2023-09-02T08:09:36.657Z,95391
2023-09-02T08:13:01.863Z,95385
2023-09-02T08:16:27.023Z,95397
2023-09-02T08:19:52.203Z,95406
2023-09-02T08:23:17.585Z,95408
2023-09-02T08:26:42.499Z,95410
2023-09-02T08:30:07.668Z,95419
2023-09-02T08:33:32.820Z,95413
2023-09-02T08:36:58.019Z,95412
2023-09-02T08:40:23.246Z,95414
2023-09-02T08:43:48.400Z,95416
2023-09-02T08:47:13.577Z,95414
2023-09-02T08:50:38.737Z,95415
2023-09-02T08:54:03.958Z,95422
2023-09-02T08:57:29.115Z,95427
2023-09-02T09:00:54.324Z,95430
2023-09-02T09:04:19.442Z,95433
2023-09-02T09:07:44.612Z,95442
2023-09-02T09:11:09.796Z,95448
2023-09-02T09:14:34.951Z,95444
2023-09-02T09:18:00.273Z,95451
2023-09-02T09:21:25.303Z,95464
2023-09-02T09:24:50.461Z,95467
2023-09-02T09:28:15.647Z,95472
2023-09-02T09:31:40.854Z,95473
2023-09-02T09:35:06.077Z,95470
2023-09-02T09:38:31.251Z,95472
2023-09-02T09:41:56.398Z,95481
2023-09-02T09:45:21.669Z,95491
2023-09-02T09:48:46.856Z,95494
2023-09-02T09:52:12.081Z,95494
2023-09-02T09:55:37.325Z,95499
2023-09-02T09:59:02.550Z,95498
2023-09-02T10:02:27.784Z,95500
2023-09-02T10:05:52.973Z,95497
2023-09-02T10:09:18.190Z,95501
2023-09-02T10:12:43.421Z,95492
2023-09-02T10:16:08.669Z,95502
2023-09-02T10:19:33.802Z,95501
2023-09-02T10:22:58.974Z,95501
2023-09-02T10:26:24.173Z,95501
2023-09-02T10:29:49.327Z,95503
2023-09-02T10:33:14.513Z,95505
2023-09-02T10:36:39.720Z,95503
2023-09-02T10:40:04.880Z,95508
2023-09-02T10:43:30.055Z,95510
2023-09-02T10:46:56.269Z,95506
2023-09-02T10:50:20.416Z,95505
2023-09-02T10:53:45.616Z,95510
2023-09-02T10:57:10.766Z,95505
2023-09-02T11:00:35.958Z,95505
2023-09-02T11:04:01.130Z,95508
2023-09-02T11:07:26.342Z,95516
2023-09-02T11:10:51.625Z,95522
2023-09-02T11:14:16.779Z,95521
2023-09-02T11:17:42.053Z,95517
2023-09-02T11:21:07.156Z,95521
2023-09-02T11:24:32.382Z,95523
2023-09-02T11:27:57.627Z,95516
2023-09-02T11:31:22.865Z,95517
2023-09-02T11:34:48.049Z,95507
2023-09-02T11:38:13.309Z,95516
2023-09-02T11:41:38.498Z,95515
2023-09-02T11:45:03.709Z,95510
2023-09-02T11:48:28.918Z,95516
2023-09-02T11:51:54.148Z,95519
2023-09-02T11:55:19.377Z,95511
2023-09-02T11:58:44.605Z,95509
2023-09-02T12:02:09.957Z,95511
2023-09-02T12:05:35.075Z,95508
2023-09-02T12:09:00.301Z,95504
2023-09-02T12:12:25.524Z,95500
2023-09-02T12:15:50.735Z,95497
2023-09-02T12:19:15.923Z,95504
2023-09-02T12:22:41.143Z,95514
2023-09-02T12:26:06.378Z,95508
2023-09-02T12:29:31.559Z,95513
2023-09-02T12:32:56.752Z,95507
2023-09-02T12:36:22.063Z,95505
2023-09-02T12:39:47.227Z,95494
2023-09-02T12:43:12.429Z,95489
2023-09-02T12:46:37.625Z,95495
2023-09-02T12:50:02.806Z,95494
2023-09-02T12:53:28.040Z,95495
2023-09-02T12:56:53.245Z,95496
2023-09-02T13:00:18.461Z,95495
2023-09-02T13:03:43.720Z,95498
2023-09-02T13:07:08.839Z,95498
2023-09-02T13:10:34.093Z,95505
2023-09-02T13:13:59.246Z,95511
2023-09-02T13:17:24.449Z,95504
2023-09-02T13:20:49.668Z,95487
2023-09-02T13:24:14.871Z,95489
2023-09-02T13:27:40.078Z,95487
2023-09-02T13:31:05.299Z,95495
2023-09-02T13:34:30.459Z,95500
2023-09-02T13:37:55.661Z,95503
2023-09-02T13:41:20.847Z,95505
2023-09-02T13:44:46.056Z,95509
2023-09-02T13:48:11.240Z,95510
2023-09-02T13:51:36.426Z,95503
2023-09-02T13:55:01.571Z,95507
2023-09-02T13:58:26.813Z,95504
2023-09-02T14:01:52.064Z,95504
2023-09-02T14:05:17.264Z,95504
2023-09-02T14:08:42.439Z,95511
2023-09-02T14:12:07.686Z,95505
2023-09-02T14:15:32.853Z,95506
2023-09-02T14:18:58.064Z,95505
2023-09-02T14:22:23.212Z,95506
2023-09-02T14:25:48.426Z,95508
2023-09-02T14:29:13.599Z,95515
2023-09-02T14:32:38.802Z,95509
2023-09-02T14:36:04.666Z,95512
2023-09-02T14:39:29.809Z,95509
2023-09-02T14:42:55.012Z,95517
2023-09-02T14:46:20.176Z,95509
2023-09-02T14:49:45.330Z,95511
2023-09-02T14:53:10.511Z,95517
2023-09-02T14:56:35.689Z,95521
2023-09-02T15:00:00.870Z,95518
2023-09-02T15:03:27.392Z,95516
2023-09-02T15:06:51.257Z,95519
2023-09-02T15:10:16.446Z,95526
2023-09-02T15:48:27.713Z,95560
2023-09-02T15:51:52.893Z,95559
2023-09-02T15:55:18.118Z,95570
2023-09-02T15:58:43.324Z,95568
2023-09-02T16:02:08.577Z,95561
2023-09-02T16:05:33.765Z,95559
2023-09-02T16:08:58.909Z,95558
2023-09-02T16:12:24.090Z,95559
2023-09-02T16:15:49.366Z,95565
2023-09-02T16:19:14.856Z,95570
2023-09-02T16:22:40.045Z,95570
2023-09-02T16:26:05.239Z,95572
2023-09-02T16:29:30.415Z,95570
2023-09-02T16:32:55.651Z,95572
2023-09-02T16:36:20.812Z,95567
2023-09-02T16:39:46.054Z,95570
2023-09-02T16:43:11.179Z,95561
2023-09-02T16:46:36.452Z,95564
2023-09-02T16:50:01.575Z,95558
2023-09-02T16:53:26.788Z,95564
2023-09-02T16:56:51.988Z,95560
2023-09-02T17:00:17.163Z,95555
2023-09-02T17:03:42.352Z,95556
2023-09-02T17:07:07.589Z,95553
2023-09-02T17:10:32.788Z,95552
2023-09-02T17:13:58.034Z,95549
2023-09-02T17:17:23.204Z,95548
2023-09-02T17:20:48.418Z,95545
2023-09-02T17:24:13.627Z,95543
2023-09-02T17:27:38.816Z,95537
2023-09-02T17:31:04.287Z,95542
2023-09-02T17:34:29.279Z,95548
2023-09-02T17:37:54.490Z,95551
2023-09-02T17:41:19.668Z,95549
2023-09-02T17:44:44.906Z,95550
2023-09-02T17:48:10.145Z,95551
2023-09-02T17:51:35.327Z,95561
2023-09-02T17:55:00.538Z,95560
2023-09-02T17:58:25.762Z,95556
2023-09-02T18:01:50.980Z,95570
2023-09-02T18:05:16.399Z,95572
2023-09-02T18:08:51.827Z,95575
2023-09-02T18:12:06.713Z,95571
2023-09-02T18:15:32.017Z,95571
2023-09-02T18:18:57.081Z,95584
2023-09-02T18:22:22.282Z,95597
2023-09-02T18:25:47.441Z,95594
2023-09-02T18:29:12.628Z,95603
2023-09-02T18:32:37.817Z,95598
2023-09-02T18:36:02.930Z,95606
2023-09-02T18:39:28.167Z,95615
2023-09-02T18:42:53.298Z,95622
2023-09-02T18:46:18.492Z,95625
2023-09-02T18:49:43.701Z,95625
2023-09-02T18:53:08.851Z,95623
2023-09-02T18:56:34.047Z,95623
2023-09-02T18:59:59.212Z,95630
2023-09-02T19:03:24.405Z,95636
2023-09-02T19:06:49.587Z,95643
2023-09-02T19:10:14.788Z,95643
2023-09-02T19:13:40.003Z,95646
2023-09-02T19:17:05.204Z,95653
2023-09-02T19:20:30.419Z,95643
2023-09-02T19:23:55.610Z,95644
2023-09-02T19:27:20.826Z,95643
2023-09-02T19:30:46.040Z,95646
2023-09-02T19:34:11.183Z,95656
2023-09-02T19:37:36.348Z,95657
2023-09-02T19:41:01.566Z,95653
2023-09-02T19:44:26.746Z,95652
2023-09-02T19:47:51.987Z,95655
2023-09-02T19:51:17.105Z,95647
2023-09-02T19:54:42.306Z,95652
2023-09-02T19:58:07.471Z,95659
2023-09-02T20:01:32.747Z,95654
2023-09-02T20:04:57.844Z,95657
2023-09-02T20:08:23.113Z,95658
2023-09-02T20:11:48.144Z,95652
2023-09-02T20:15:15.145Z,95659
2023-09-02T20:18:38.524Z,95657
2023-09-02T20:22:03.723Z,95659
2023-09-02T20:25:28.851Z,95664
2023-09-02T20:28:54.023Z,95671
2023-09-02T20:32:19.181Z,95667
2023-09-02T20:35:44.343Z,95674
2023-09-02T20:39:09.500Z,95678
2023-09-02T20:42:34.672Z,95680
2023-09-02T20:45:59.853Z,95690
2023-09-02T20:49:24.961Z,95685
2023-09-02T20:52:50.117Z,95690
2023-09-02T20:56:15.323Z,95691
2023-09-02T20:59:40.461Z,95693
2023-09-02T21:03:05.624Z,95683
2023-09-02T21:06:30.936Z,95678
2023-09-02T21:09:56.117Z,95683
2023-09-02T21:13:21.311Z,95689
2023-09-02T21:16:46.517Z,95687
2023-09-02T21:20:11.626Z,95687
2023-09-02T21:23:36.826Z,95686
2023-09-02T21:27:02.020Z,95692
2023-09-02T21:30:27.190Z,95692
2023-09-02T21:33:52.403Z,95695
2023-09-02T21:37:17.597Z,95702
2023-09-02T21:40:42.770Z,95697
2023-09-02T21:44:07.946Z,95700
2023-09-02T21:47:33.212Z,95693
2023-09-02T21:50:58.322Z,95697
2023-09-02T21:54:23.509Z,95697
2023-09-02T21:57:48.691Z,95700
2023-09-02T22:01:14.015Z,95703
2023-09-02T22:04:39.332Z,95698
2023-09-02T22:08:04.499Z,95697
2023-09-02T22:11:29.667Z,95699
2023-09-02T22:14:54.866Z,95702
2023-09-02T22:18:20.059Z,95709
2023-09-02T22:21:45.259Z,95703
2023-09-02T22:25:10.394Z,95698
2023-09-02T22:28:35.572Z,95700
2023-09-02T22:32:00.812Z,95703
2023-09-02T22:35:25.945Z,95709
2023-09-02T22:42:16.293Z,95699
2023-09-02T22:45:41.493Z,95706
2023-09-02T22:49:06.653Z,95707
2023-09-02T22:52:31.831Z,95708
2023-09-02T22:55:57.031Z,95708
2023-09-02T22:59:22.202Z,95713
2023-09-02T23:02:47.420Z,95715
2023-09-02T23:06:12.955Z,95719
2023-09-02T23:09:37.771Z,95727
2023-09-02T23:13:02.963Z,95715
2023-09-02T23:16:28.148Z,95712
2023-09-02T23:19:53.310Z,95706
2023-09-02T23:23:18.477Z,95703
2023-09-02T23:26:43.668Z,95698
2023-09-02T23:30:08.880Z,95699
2023-09-02T23:33:34.089Z,95694
2023-09-02T23:36:59.214Z,95693
2023-09-02T23:40:24.387Z,95690
2023-09-02T23:43:49.580Z,95689
2023-09-02T23:47:14.879Z,95692
2023-09-02T23:50:39.916Z,95703
2023-09-02T23:54:05.090Z,95708
2023-09-02T23:57:30.269Z,95707
